createdAt,value
2022-12-25T00:01:27.801Z,101596.38
2022-12-25T00:03:56.605Z,101597.28
2022-12-25T00:06:23.795Z,101596.81
2022-12-25T00:08:50.340Z,101603.88
2022-12-25T00:11:19.905Z,101595.88
2022-12-25T00:13:47.055Z,101585.81
2022-12-25T00:16:18.189Z,101589.25
2022-12-25T00:18:45.549Z,101582.63
2022-12-25T00:21:13.485Z,101586.31
2022-12-25T00:23:40.258Z,101580.66
2022-12-25T00:26:09.319Z,101581.75
2022-12-25T00:28:36.307Z,101594.81
2022-12-25T00:31:07.904Z,101587.34
2022-12-25T00:33:36.433Z,101590.25
2022-12-25T00:36:03.785Z,101583.78
2022-12-25T00:38:30.444Z,101587.75
2022-12-25T00:40:56.953Z,101581.50
2022-12-25T00:43:23.627Z,101576.63
2022-12-25T00:46:02.118Z,101576.72
2022-12-25T00:48:29.680Z,101592.03
2022-12-25T00:50:58.014Z,101592.59
2022-12-25T00:53:25.909Z,101592.34
2022-12-25T00:55:57.196Z,101590.06
2022-12-25T00:58:25.382Z,101592.97
2022-12-25T01:00:51.906Z,101600.50
2022-12-25T01:03:18.863Z,101595.09
2022-12-25T01:05:55.320Z,101593.81
2022-12-25T01:08:21.778Z,101587.38
2022-12-25T01:11:00.168Z,101592.34
2022-12-25T01:13:28.501Z,101591.31
2022-12-25T01:15:55.086Z,101605.63
2022-12-25T01:18:23.710Z,101601.78
2022-12-25T01:20:50.687Z,101598.38
2022-12-25T01:23:17.469Z,101611.13
2022-12-25T01:25:43.988Z,101605.19
2022-12-25T01:28:10.500Z,101598.22
2022-12-25T01:30:36.974Z,101594.03
2022-12-25T01:33:03.645Z,101613.31
2022-12-25T01:35:30.079Z,101609.69
2022-12-25T01:37:56.778Z,101615.97
2022-12-25T01:40:23.329Z,101609.19
2022-12-25T01:42:49.871Z,101609.19
2022-12-25T01:45:37.742Z,101601.41
2022-12-25T01:48:13.036Z,101600.84
2022-12-25T01:50:43.958Z,101588.38
2022-12-25T01:53:10.874Z,101585.78
2022-12-25T01:55:38.449Z,101592.47
2022-12-25T01:58:05.402Z,101607.00
2022-12-25T02:00:31.994Z,101603.88
2022-12-25T02:02:59.128Z,101611.13
2022-12-25T02:05:31.804Z,101606.41
2022-12-25T02:08:02.085Z,101610.03
2022-12-25T02:10:28.555Z,101605.06
2022-12-25T02:12:55.881Z,101612.53
2022-12-25T02:15:31.371Z,101603.91
2022-12-25T02:18:15.848Z,101594.00
2022-12-25T02:21:09.191Z,101598.88
2022-12-25T02:23:54.265Z,101607.38
2022-12-25T02:26:56.698Z,101605.00
2022-12-25T02:29:34.805Z,101589.94
2022-12-25T02:32:10.131Z,101592.75
2022-12-25T02:34:48.602Z,101600.78
2022-12-25T02:37:24.621Z,101596.06
2022-12-25T02:40:01.960Z,101605.50
2022-12-25T02:42:51.103Z,101609.66
2022-12-25T02:45:42.795Z,101603.91
2022-12-25T02:48:30.093Z,101592.44
2022-12-25T02:51:18.905Z,101594.50
2022-12-25T02:54:05.703Z,101586.38
2022-12-25T02:56:53.390Z,101586.16
2022-12-25T02:59:40.088Z,101579.16
2022-12-25T03:02:26.370Z,101578.44
2022-12-25T03:05:15.179Z,101574.91
2022-12-25T03:07:44.092Z,101562.25
2022-12-25T03:10:33.474Z,101552.13
2022-12-25T03:13:06.051Z,101538.16
2022-12-25T03:15:53.274Z,101544.34
2022-12-25T03:18:24.337Z,101540.19
2022-12-25T03:21:13.197Z,101536.56
2022-12-25T03:24:02.177Z,101528.63
2022-12-25T03:26:48.039Z,101527.44
2022-12-25T03:29:37.107Z,101524.63
2022-12-25T03:32:14.496Z,101540.53
2022-12-25T03:35:11.238Z,101537.97
2022-12-25T03:38:29.171Z,101535.47
2022-12-25T03:41:17.415Z,101533.94
2022-12-25T03:44:18.192Z,101543.06
2022-12-25T03:47:11.845Z,101546.19
2022-12-25T03:50:11.905Z,101544.69
2022-12-25T03:52:58.180Z,101541.06
2022-12-25T03:55:45.306Z,101547.34
2022-12-25T03:58:41.136Z,101550.22
2022-12-25T04:01:26.378Z,101543.47
2022-12-25T04:04:11.534Z,101536.47
2022-12-25T04:06:56.532Z,101528.66
2022-12-25T04:09:42.153Z,101519.00
2022-12-25T04:12:27.282Z,101525.19
2022-12-25T04:15:12.431Z,101518.34
2022-12-25T04:17:57.793Z,101526.06
2022-12-25T04:20:42.751Z,101529.19
2022-12-25T04:23:27.950Z,101523.44
2022-12-25T04:26:16.106Z,101531.22
2022-12-25T04:29:01.263Z,101539.03
2022-12-25T04:31:46.673Z,101541.84
2022-12-25T04:34:31.711Z,101542.09
2022-12-25T04:36:58.326Z,101544.38
2022-12-25T04:39:24.869Z,101536.84
2022-12-25T04:41:51.680Z,101546.94
2022-12-25T04:44:18.151Z,101530.56
2022-12-25T04:46:44.686Z,101538.28
2022-12-25T04:49:11.293Z,101535.13
2022-12-25T04:51:38.107Z,101538.75
2022-12-25T04:54:05.291Z,101525.72
2022-12-25T04:56:31.773Z,101528.06
2022-12-25T04:58:58.247Z,101527.75
2022-12-25T05:01:25.093Z,101527.75
2022-12-25T05:03:52.048Z,101514.78
2022-12-25T05:06:18.640Z,101514.25
2022-12-25T05:08:45.163Z,101503.53
2022-12-25T05:11:14.521Z,101512.38
2022-12-25T05:13:41.237Z,101514.66
2022-12-25T05:16:12.084Z,101520.06
2022-12-25T05:18:38.743Z,101508.13
2022-12-25T05:21:07.803Z,101503.19
2022-12-25T05:23:34.961Z,101499.00
2022-12-25T05:26:06.731Z,101487.53
2022-12-25T05:28:36.153Z,101490.91
2022-12-25T05:31:03.099Z,101489.13
2022-12-25T05:33:29.707Z,101491.16
2022-12-25T05:35:56.635Z,101485.97
2022-12-25T05:38:23.047Z,101471.41
2022-12-25T05:40:51.535Z,101469.84
2022-12-25T05:43:19.477Z,101471.66
2022-12-25T05:45:45.983Z,101473.00
2022-12-25T05:48:12.449Z,101473.53
2022-12-25T05:50:39.043Z,101472.72
2022-12-25T05:53:08.596Z,101474.31
2022-12-25T05:55:37.203Z,101481.31
2022-12-25T05:58:05.911Z,101474.56
2022-12-25T06:00:32.973Z,101480.28
2022-12-25T06:02:59.504Z,101485.25
2022-12-25T06:05:26.494Z,101486.81
2022-12-25T06:07:53.204Z,101480.13
2022-12-25T06:10:20.974Z,101480.69
2022-12-25T06:12:47.494Z,101471.38
2022-12-25T06:15:14.441Z,101465.94
2022-12-25T06:17:40.969Z,101451.69
2022-12-25T06:20:08.289Z,101453.78
2022-12-25T06:22:35.582Z,101443.41
2022-12-25T06:25:02.160Z,101452.25
2022-12-25T06:27:28.748Z,101463.94
2022-12-25T06:29:55.759Z,101454.66
2022-12-25T06:32:22.309Z,101460.38
2022-12-25T06:34:48.903Z,101457.84
2022-12-25T06:37:15.466Z,101454.75
2022-12-25T06:39:41.973Z,101457.91
2022-12-25T06:42:08.690Z,101446.00
2022-12-25T06:44:35.368Z,101440.31
2022-12-25T06:47:02.075Z,101436.22
2022-12-25T06:49:28.753Z,101441.94
2022-12-25T06:51:55.618Z,101437.28
2022-12-25T06:54:22.112Z,101445.63
2022-12-25T06:56:49.831Z,101441.50
2022-12-25T06:59:16.489Z,101435.81
2022-12-25T07:01:49.216Z,101418.16
2022-12-25T07:04:25.484Z,101416.91
2022-12-25T07:06:52.809Z,101414.84
2022-12-25T07:09:19.841Z,101419.75
2022-12-25T07:11:46.322Z,101415.91
2022-12-25T07:14:24.242Z,101417.47
2022-12-25T07:16:51.440Z,101428.63
2022-12-25T07:19:19.219Z,101425.78
2022-12-25T07:21:46.454Z,101418.78
2022-12-25T07:24:18.219Z,101425.78
2022-12-25T07:26:44.651Z,101448.72
2022-12-25T07:29:11.168Z,101435.72
2022-12-25T07:31:37.773Z,101431.06
2022-12-25T07:34:04.760Z,101446.41
2022-12-25T07:36:31.239Z,101445.13
2022-12-25T07:38:57.876Z,101437.09
2022-12-25T07:41:24.531Z,101434.50
2022-12-25T07:43:55.076Z,101432.41
2022-12-25T07:46:23.283Z,101445.41
2022-12-25T07:48:49.979Z,101444.13
2022-12-25T07:51:16.722Z,101451.94
2022-12-25T07:53:43.418Z,101463.63
2022-12-25T07:56:18.654Z,101464.41
2022-12-25T07:58:45.769Z,101454.81
2022-12-25T08:01:16.641Z,101451.97
2022-12-25T08:03:44.319Z,101451.97
2022-12-25T08:06:11.750Z,101456.69
2022-12-25T08:08:40.191Z,101467.31
2022-12-25T08:11:08.825Z,101461.63
2022-12-25T08:13:35.985Z,101464.78
2022-12-25T08:16:05.706Z,101471.00
2022-12-25T08:18:32.471Z,101476.72
2022-12-25T08:21:17.080Z,101471.53
2022-12-25T08:23:45.709Z,101483.50
2022-12-25T08:26:18.661Z,101487.19
2022-12-25T08:28:45.504Z,101482.22
2022-12-25T08:31:16.109Z,101481.19
2022-12-25T08:33:43.115Z,101476.78
2022-12-25T08:36:11.575Z,101477.31
2022-12-25T08:38:40.393Z,101472.66
2022-12-25T08:41:07.303Z,101479.69
2022-12-25T08:43:33.719Z,101471.38
2022-12-25T08:46:00.274Z,101456.53
2022-12-25T08:48:27.764Z,101447.72
2022-12-25T08:50:54.433Z,101446.66
2022-12-25T08:53:23.007Z,101444.88
2022-12-25T08:55:49.665Z,101440.44
2022-12-25T08:58:16.789Z,101440.22
2022-12-25T09:00:43.588Z,101437.88
2022-12-25T09:03:10.133Z,101443.06
2022-12-25T09:05:40.732Z,101438.91
2022-12-25T09:08:07.477Z,101443.06
2022-12-25T09:10:37.595Z,101449.84
2022-12-25T09:13:04.596Z,101439.47
2022-12-25T09:15:31.287Z,101436.63
2022-12-25T09:17:58.198Z,101446.50
2022-12-25T09:20:24.886Z,101463.41
2022-12-25T09:22:51.384Z,101467.06
2022-12-25T09:25:18.007Z,101456.41
2022-12-25T09:27:44.548Z,101453.81
2022-12-25T09:30:11.349Z,101456.94
2022-12-25T09:32:40.343Z,101466.31
2022-12-25T09:35:10.329Z,101465.06
2022-12-25T09:37:36.959Z,101481.44
2022-12-25T09:40:03.991Z,101481.97
2022-12-25T09:42:32.392Z,101487.16
2022-12-25T09:45:11.897Z,101469.72
2022-12-25T09:47:41.971Z,101454.13
2022-12-25T09:50:20.610Z,101459.31
2022-12-25T09:52:57.646Z,101448.44
2022-12-25T09:55:26.136Z,101449.75
2022-12-25T09:57:57.105Z,101452.34
2022-12-25T10:00:28.751Z,101456.25
2022-12-25T10:03:19.173Z,101438.03
2022-12-25T10:06:04.130Z,101427.63
2022-12-25T10:09:02.494Z,101428.69
2022-12-25T10:11:51.537Z,101443.00
2022-12-25T10:14:31.646Z,101450.03
2022-12-25T10:17:34.327Z,101431.03
2022-12-25T10:20:43.306Z,101425.03
2022-12-25T10:23:19.726Z,101423.75
2022-12-25T10:25:47.561Z,101423.75
2022-12-25T10:28:21.767Z,101423.25
2022-12-25T10:30:50.236Z,101415.94
2022-12-25T10:33:17.897Z,101422.47
2022-12-25T10:35:45.312Z,101413.63
2022-12-25T10:38:15.622Z,101414.16
2022-12-25T10:41:24.114Z,101412.88
2022-12-25T10:43:55.876Z,101398.81
2022-12-25T10:46:25.361Z,101407.94
2022-12-25T10:48:56.569Z,101395.72
2022-12-25T10:51:38.845Z,101402.50
2022-12-25T10:54:35.967Z,101388.44
2022-12-25T10:57:09.613Z,101380.91
2022-12-25T10:59:43.668Z,101371.25
2022-12-25T11:02:26.444Z,101365.81
2022-12-25T11:05:37.227Z,101356.69
2022-12-25T11:08:04.073Z,101358.00
2022-12-25T11:10:35.728Z,101351.53
2022-12-25T11:13:05.719Z,101347.34
2022-12-25T11:15:37.072Z,101347.34
2022-12-25T11:18:18.049Z,101334.34
2022-12-25T11:20:58.114Z,101329.38
2022-12-25T11:23:26.806Z,101329.38
2022-12-25T11:25:59.234Z,101316.66
2022-12-25T11:28:28.242Z,101318.19
2022-12-25T11:30:59.788Z,101322.38
2022-12-25T11:33:33.315Z,101316.41
2022-12-25T11:36:08.119Z,101296.09
2022-12-25T11:38:34.601Z,101287.50
2022-12-25T11:41:04.501Z,101290.38
2022-12-25T11:43:39.992Z,101265.66
2022-12-25T11:46:22.133Z,101264.91
2022-12-25T11:49:12.331Z,101264.88
2022-12-25T11:51:43.449Z,101266.47
2022-12-25T11:54:18.210Z,101263.66
2022-12-25T11:56:44.741Z,101262.34
2022-12-25T11:59:30.116Z,101281.09
2022-12-25T12:02:01.901Z,101276.13
2022-12-25T12:04:40.343Z,101282.41
2022-12-25T12:07:29.243Z,101280.03
2022-12-25T12:10:15.856Z,101275.31
2022-12-25T12:12:54.867Z,101273.47
2022-12-25T12:15:30.415Z,101277.66
2022-12-25T12:18:26.496Z,101271.97
2022-12-25T12:21:08.199Z,101266.50
2022-12-25T12:23:56.419Z,101263.63
2022-12-25T12:26:44.629Z,101263.88
2022-12-25T12:29:33.071Z,101247.50
2022-12-25T12:32:05.119Z,101251.91
2022-12-25T12:34:42.620Z,101250.88
2022-12-25T12:37:37.770Z,101247.22
2022-12-25T12:40:08.044Z,101237.31
2022-12-25T12:42:48.502Z,101230.78
2022-12-25T12:45:29.150Z,101228.97
2022-12-25T12:47:56.755Z,101224.59
2022-12-25T12:50:28.383Z,101232.63
2022-12-25T12:52:55.549Z,101231.59
2022-12-25T12:55:33.508Z,101241.47
2022-12-25T12:58:06.013Z,101238.09
2022-12-25T13:00:52.534Z,101236.28
2022-12-25T13:03:22.019Z,101231.59
2022-12-25T13:06:00.755Z,101230.00
2022-12-25T13:09:00.760Z,101223.78
2022-12-25T13:11:31.340Z,101216.22
2022-12-25T13:14:02.318Z,101212.84
2022-12-25T13:16:33.619Z,101205.28
2022-12-25T13:19:05.472Z,101197.72
2022-12-25T13:21:33.059Z,101185.22
2022-12-25T13:24:07.205Z,101187.56
2022-12-25T13:26:33.687Z,101189.41
2022-12-25T13:29:01.995Z,101190.94
2022-12-25T13:31:31.395Z,101184.97
2022-12-25T13:34:01.263Z,101192.78
2022-12-25T13:36:30.184Z,101179.25
2022-12-25T13:38:58.932Z,101170.91
2022-12-25T13:41:59.821Z,101181.59
2022-12-25T13:44:29.826Z,101168.56
2022-12-25T13:46:56.437Z,101167.00
2022-12-25T13:49:24.683Z,101169.59
2022-12-25T13:51:51.476Z,101169.06
2022-12-25T13:54:18.856Z,101175.84
2022-12-25T13:56:55.992Z,101178.47
2022-12-25T13:59:24.792Z,101161.81
2022-12-25T14:01:54.154Z,101158.69
2022-12-25T14:04:23.714Z,101171.16
2022-12-25T14:06:51.961Z,101165.44
2022-12-25T14:09:19.230Z,101161.81
2022-12-25T14:11:50.374Z,101153.47
2022-12-25T14:14:23.860Z,101159.19
2022-12-25T14:16:53.659Z,101160.75
2022-12-25T14:19:40.532Z,101160.22
2022-12-25T14:22:16.870Z,101162.56
2022-12-25T14:24:43.515Z,101167.78
2022-12-25T14:27:26.589Z,101171.69
2022-12-25T14:29:57.444Z,101166.50
2022-12-25T14:32:30.241Z,101158.69
2022-12-25T14:35:01.620Z,101161.81
2022-12-25T14:37:30.867Z,101167.00
2022-12-25T14:40:00.023Z,101159.72
2022-12-25T14:42:32.713Z,101153.19
2022-12-25T14:45:07.269Z,101144.63
2022-12-25T14:47:49.865Z,101144.06
2022-12-25T14:50:44.986Z,101139.63
2022-12-25T14:53:21.691Z,101135.75
2022-12-25T14:55:50.556Z,101135.75
2022-12-25T14:58:26.750Z,101150.06
2022-12-25T15:01:04.613Z,101150.06
2022-12-25T15:03:35.445Z,101137.31
2022-12-25T15:06:03.476Z,101141.75
2022-12-25T15:08:32.397Z,101153.47
2022-12-25T15:11:01.517Z,101152.97
2022-12-25T15:13:29.826Z,101149.28
2022-12-25T15:16:19.729Z,101138.38
2022-12-25T15:18:47.307Z,101151.38
2022-12-25T15:21:23.073Z,101155.03
2022-12-25T15:23:49.621Z,101157.63
2022-12-25T15:26:16.469Z,101154.00
2022-12-25T15:28:42.872Z,101151.41
2022-12-25T15:31:23.461Z,101151.13
2022-12-25T15:33:50.066Z,101154.53
2022-12-25T15:36:17.037Z,101138.38
2022-12-25T15:38:43.842Z,101146.97
2022-12-25T15:41:37.863Z,101151.41
2022-12-25T15:44:06.101Z,101146.69
2022-12-25T15:46:34.094Z,101139.41
2022-12-25T15:49:00.849Z,101130.56
2022-12-25T15:51:27.673Z,101140.97
2022-12-25T15:53:54.282Z,101137.06
2022-12-25T15:56:22.410Z,101124.84
2022-12-25T15:58:49.731Z,101134.19
2022-12-25T16:01:19.210Z,101118.31
2022-12-25T16:03:46.666Z,101123.53
2022-12-25T16:06:15.663Z,101107.66
2022-12-25T16:08:42.945Z,101105.31
2022-12-25T16:11:09.624Z,101111.31
2022-12-25T16:13:37.294Z,101115.22
2022-12-25T16:16:05.026Z,101126.41
2022-12-25T16:18:31.762Z,101130.84
2022-12-25T16:20:59.570Z,101126.13
2022-12-25T16:23:26.122Z,101133.69
2022-12-25T16:25:52.623Z,101125.88
2022-12-25T16:28:19.061Z,101126.66
2022-12-25T16:30:45.781Z,101129.78
2022-12-25T16:33:12.368Z,101123.53
2022-12-25T16:35:38.873Z,101121.44
2022-12-25T16:38:05.506Z,101116.25
2022-12-25T16:40:32.341Z,101109.50
2022-12-25T16:42:59.184Z,101111.03
2022-12-25T16:45:25.694Z,101098.28
2022-12-25T16:47:52.089Z,101085.28
2022-12-25T16:50:18.665Z,101088.41
2022-12-25T16:52:45.203Z,101093.63
2022-12-25T16:55:11.805Z,101092.31
2022-12-25T16:57:38.363Z,101101.16
2022-12-25T17:00:05.443Z,101096.72
2022-12-25T17:02:31.980Z,101102.19
2022-12-25T17:04:59.396Z,101097.50
2022-12-25T17:07:26.599Z,101099.84
2022-12-25T17:09:53.080Z,101094.38
2022-12-25T17:12:19.550Z,101100.38
2022-12-25T17:14:45.984Z,101093.09
2022-12-25T17:17:12.515Z,101087.13
2022-12-25T17:19:39.033Z,101088.66
2022-12-25T17:22:06.745Z,101088.41
2022-12-25T17:24:36.183Z,101097.25
2022-12-25T17:27:03.563Z,101099.06
2022-12-25T17:29:31.844Z,101096.72
2022-12-25T17:31:58.495Z,101101.66
2022-12-25T17:34:25.082Z,101095.69
2022-12-25T17:36:53.141Z,101094.94
2022-12-25T17:39:19.712Z,101092.31
2022-12-25T17:41:46.157Z,101087.38
2022-12-25T17:44:13.143Z,101086.31
2022-12-25T17:46:39.721Z,101095.69
2022-12-25T17:49:06.639Z,101095.94
2022-12-25T17:51:33.290Z,101101.94
2022-12-25T17:54:03.440Z,101105.34
2022-12-25T17:56:30.114Z,101104.53
2022-12-25T17:58:59.238Z,101104.28
2022-12-25T18:01:27.647Z,101112.63
2022-12-25T18:03:55.235Z,101103.50
2022-12-25T18:06:24.372Z,101096.50
2022-12-25T18:08:50.857Z,101088.94
2022-12-25T18:11:23.062Z,101086.34
2022-12-25T18:13:52.146Z,101077.47
2022-12-25T18:16:20.843Z,101080.34
2022-12-25T18:18:51.935Z,101083.72
2022-12-25T18:21:20.119Z,101079.56
2022-12-25T18:23:46.676Z,101071.75
2022-12-25T18:26:13.590Z,101066.81
2022-12-25T18:28:42.360Z,101069.69
2022-12-25T18:31:16.874Z,101069.69
2022-12-25T18:33:44.564Z,101082.94
2022-12-25T18:36:13.587Z,101089.69
2022-12-25T18:38:40.462Z,101085.81
2022-12-25T18:41:10.688Z,101083.72
2022-12-25T18:43:53.019Z,101079.06
2022-12-25T18:46:24.259Z,101083.97
2022-12-25T18:48:51.488Z,101092.56
2022-12-25T18:51:18.097Z,101098.28
2022-12-25T18:53:44.937Z,101102.47
2022-12-25T18:56:17.291Z,101099.88
2022-12-25T18:58:44.482Z,101095.16
2022-12-25T19:01:19.887Z,101079.81
2022-12-25T19:03:48.829Z,101087.09
2022-12-25T19:06:22.169Z,101076.44
2022-12-25T19:08:49.218Z,101074.34
2022-12-25T19:11:16.714Z,101079.56
2022-12-25T19:13:44.089Z,101081.91
2022-12-25T19:16:11.138Z,101081.91
2022-12-25T19:18:39.175Z,101080.34
2022-12-25T19:21:07.758Z,101079.31
2022-12-25T19:23:35.129Z,101075.94
2022-12-25T19:26:04.860Z,101067.06
2022-12-25T19:28:31.360Z,101073.31
2022-12-25T19:30:59.943Z,101079.56
2022-12-25T19:33:26.461Z,101069.69
2022-12-25T19:35:53.129Z,101072.28
2022-12-25T19:38:20.253Z,101074.34
2022-12-25T19:41:00.383Z,101078.25
2022-12-25T19:43:29.717Z,101080.06
2022-12-25T19:45:59.845Z,101084.25
2022-12-25T19:48:26.396Z,101088.94
2022-12-25T19:50:53.528Z,101090.50
2022-12-25T19:53:25.544Z,101106.34
2022-12-25T19:55:56.722Z,101094.91
2022-12-25T19:58:26.762Z,101103.22
2022-12-25T20:01:07.753Z,101098.31
2022-12-25T20:03:40.179Z,101101.13
2022-12-25T20:06:21.893Z,101096.75
2022-12-25T20:08:54.754Z,101097.50
2022-12-25T20:11:23.326Z,101106.63
2022-12-25T20:13:52.358Z,101102.19
2022-12-25T20:16:18.989Z,101102.72
2022-12-25T20:18:45.633Z,101100.88
2022-12-25T20:21:17.875Z,101101.41
2022-12-25T20:23:46.966Z,101102.69
2022-12-25T20:26:14.918Z,101106.09
2022-12-25T20:28:42.856Z,101103.75
2022-12-25T20:31:13.250Z,101098.81
2022-12-25T20:33:39.914Z,101102.44
2022-12-25T20:36:07.278Z,101097.25
2022-12-25T20:38:35.008Z,101095.97
2022-12-25T20:43:52.342Z,101102.97
2022-12-25T20:46:19.232Z,101102.72
2022-12-25T20:48:46.085Z,101103.50
2022-12-25T20:51:18.894Z,101104.28
2022-12-25T20:53:45.941Z,101104.28
2022-12-25T20:56:14.524Z,101108.19
2022-12-25T20:58:41.765Z,101106.38
2022-12-25T21:01:12.886Z,101101.94
2022-12-25T21:03:40.290Z,101104.53
2022-12-25T21:06:07.826Z,101115.97
2022-12-25T21:08:36.388Z,101109.75
2022-12-25T21:11:04.084Z,101117.81
2022-12-25T21:13:33.974Z,101112.34
2022-12-25T21:16:00.919Z,101113.38
2022-12-25T21:18:28.654Z,101119.09
2022-12-25T21:20:57.791Z,101120.16
2022-12-25T21:23:28.512Z,101131.09
2022-12-25T21:25:55.048Z,101123.53
2022-12-25T21:28:22.793Z,101122.75
2022-12-25T21:30:50.907Z,101117.56
2022-12-25T21:33:36.243Z,101125.88
2022-12-25T21:36:10.901Z,101142.28
2022-12-25T21:38:38.249Z,101145.13
2022-12-25T21:41:07.021Z,101145.66
2022-12-25T21:43:35.279Z,101151.91
2022-12-25T21:46:14.983Z,101150.84
2022-12-25T21:48:42.624Z,101150.59
2022-12-25T21:51:32.442Z,101156.56
2022-12-25T21:53:59.809Z,101152.94
2022-12-25T21:56:30.905Z,101156.06
2022-12-25T21:59:08.463Z,101150.34
2022-12-25T22:01:36.570Z,101155.28
2022-12-25T22:04:08.813Z,101150.63
2022-12-25T22:06:54.635Z,101152.41
2022-12-25T22:09:22.489Z,101166.75
2022-12-25T22:12:07.668Z,101166.75
2022-12-25T22:14:57.129Z,101151.38
2022-12-25T22:17:50.582Z,101161.25
2022-12-25T22:20:23.914Z,101165.44
2022-12-25T22:22:51.162Z,101162.84
2022-12-25T22:25:18.428Z,101167.78
2022-12-25T22:27:46.818Z,101162.84
2022-12-25T22:30:17.372Z,101162.84
2022-12-25T22:32:46.663Z,101168.03
2022-12-25T22:35:14.550Z,101173.50
2022-12-25T22:37:42.521Z,101148.00
2022-12-25T22:40:12.552Z,101147.19
2022-12-25T22:42:39.205Z,101144.09
2022-12-25T22:45:06.234Z,101134.19
2022-12-25T22:47:32.836Z,101135.75
2022-12-25T22:49:59.383Z,101139.16
2022-12-25T22:52:26.239Z,101146.19
2022-12-25T22:54:52.770Z,101132.91
2022-12-25T22:57:19.438Z,101109.75
2022-12-25T22:59:45.995Z,101139.16
2022-12-25T23:02:12.703Z,101135.75
2022-12-25T23:04:42.131Z,101140.72
2022-12-25T23:07:10.381Z,101156.34
2022-12-25T23:09:36.895Z,101143.56
2022-12-25T23:12:03.675Z,101144.59
2022-12-25T23:14:39.143Z,101147.19
2022-12-25T23:17:30.656Z,101139.91
2022-12-25T23:20:17.199Z,101129.78
2022-12-25T23:23:03.145Z,101140.72
2022-12-25T23:25:48.737Z,101122.75
2022-12-25T23:28:35.421Z,101110.00
2022-12-25T23:31:02.025Z,101123.78
2022-12-25T23:33:28.659Z,101120.16
2022-12-25T23:35:55.421Z,101126.13
2022-12-25T23:38:22.361Z,101135.50
2022-12-25T23:40:49.088Z,101147.47
2022-12-25T23:43:15.931Z,101146.69
2022-12-25T23:45:42.362Z,101158.13
2022-12-25T23:48:08.867Z,101155.03
2022-12-25T23:50:35.338Z,101157.63
2022-12-25T23:53:01.786Z,101150.59
2022-12-25T23:55:28.311Z,101140.72
2022-12-25T23:57:54.800Z,101157.63
